Weather at Ripel Airstrip [CLOSED]

Public forecast

Using degrees Celsius for public forecast. Weather courtesy of forecast.io.

Closest aviation weather report (METAR) to Ripel Airstrip

Closest report is Stord Airport, Sørstokken, 21.5 nm (39.7 km) WSW.

2024/07/25 17:20 (retrieved 38 minutes ago)

ENSO 251720Z 16009KT 9999 FEW015 BKN030 16/14 Q1005

Closest aviation forecast (TAF) to Ripel Airstrip

Closest forecast is Bergen Airport, Flesland, 31.5 nm (58.3 km) NW.

2024/07/25 12:36 (retrieved 5 hours ago)

TAF ENBR 251100Z 2512/2612 18008KT 9999 -RA FEW012 BKN030 PROB40 TEMPO 2512/2522 4000 DZRA BKN012 TEMPO 2522/2610 4000 SHRA BKN010 SCT040CB PROB30 2604/2607 20015G25KT TS